sensor_id;sensor_type;location;lat;lon;timestamp;P1;durP1;ratioP1;P2;durP2;ratioP2
72974;SDS011;61166;54.228;37.632;2022-09-16T00:00:42;27.70;;;11.93;;
72974;SDS011;61166;54.228;37.632;2022-09-16T00:03:09;22.40;;;11.85;;
72974;SDS011;61166;54.228;37.632;2022-09-16T00:05:39;31.53;;;13.50;;
72974;SDS011;61166;54.228;37.632;2022-09-16T00:08:04;25.48;;;12.32;;
72974;SDS011;61166;54.228;37.632;2022-09-16T00:10:30;31.10;;;11.87;;
72974;SDS011;61166;54.228;37.632;2022-09-16T00:12:55;27.53;;;12.73;;
72974;SDS011;61166;54.228;37.632;2022-09-16T00:15:20;29.87;;;12.97;;
72974;SDS011;61166;54.228;37.632;2022-09-16T00:17:45;27.60;;;12.10;;
72974;SDS011;61166;54.228;37.632;2022-09-16T00:20:11;30.70;;;12.60;;
72974;SDS011;61166;54.228;37.632;2022-09-16T00:22:36;27.30;;;11.80;;
72974;SDS011;61166;54.228;37.632;2022-09-16T00:25:01;32.17;;;12.87;;
72974;SDS011;61166;54.228;37.632;2022-09-16T00:27:26;27.30;;;12.60;;
72974;SDS011;61166;54.228;37.632;2022-09-16T00:29:52;25.60;;;12.43;;
72974;SDS011;61166;54.228;37.632;2022-09-16T00:32:17;35.08;;;13.10;;
72974;SDS011;61166;54.228;37.632;2022-09-16T00:34:43;29.43;;;13.00;;
72974;SDS011;61166;54.228;37.632;2022-09-16T00:37:08;28.93;;;12.30;;
72974;SDS011;61166;54.228;37.632;2022-09-16T00:39:34;37.30;;;14.03;;
72974;SDS011;61166;54.228;37.632;2022-09-16T00:42:00;32.60;;;13.50;;
72974;SDS011;61166;54.228;37.632;2022-09-16T00:47:09;31.88;;;12.65;;
72974;SDS011;61166;54.228;37.632;2022-09-16T00:49:35;29.93;;;12.37;;
72974;SDS011;61166;54.228;37.632;2022-09-16T00:52:01;33.73;;;12.93;;
72974;SDS011;61166;54.228;37.632;2022-09-16T00:54:27;39.83;;;14.75;;
72974;SDS011;61166;54.228;37.632;2022-09-16T00:56:54;36.55;;;13.45;;
72974;SDS011;61166;54.228;37.632;2022-09-16T00:59:25;37.87;;;14.97;;
72974;SDS011;61166;54.228;37.632;2022-09-16T01:01:52;44.33;;;15.73;;
72974;SDS011;61166;54.228;37.632;2022-09-16T01:04:19;41.38;;;16.63;;
72974;SDS011;61166;54.228;37.632;2022-09-16T01:06:46;33.17;;;12.57;;
72974;SDS011;61166;54.228;37.632;2022-09-16T01:09:12;35.33;;;15.10;;
72974;SDS011;61166;54.228;37.632;2022-09-16T01:11:37;27.13;;;8.47;;
72974;SDS011;61166;54.228;37.632;2022-09-16T01:14:03;20.43;;;9.47;;
72974;SDS011;61166;54.228;37.632;2022-09-16T01:16:49;28.70;;;12.23;;
72974;SDS011;61166;54.228;37.632;2022-09-16T01:21:52;34.72;;;13.57;;
72974;SDS011;61166;54.228;37.632;2022-09-16T01:32:20;25.17;;;11.35;;
72974;SDS011;61166;54.228;37.632;2022-09-16T01:38:25;26.00;;;10.98;;
72974;SDS011;61166;54.228;37.632;2022-09-16T01:40:21;25.20;;;11.00;;
72974;SDS011;61166;54.228;37.632;2022-09-16T01:45:33;28.90;;;11.27;;
72974;SDS011;61166;54.228;37.632;2022-09-16T01:48:21;23.73;;;11.15;;
72974;SDS011;61166;54.228;37.632;2022-09-16T01:51:02;15.80;;;7.80;;
72974;SDS011;61166;54.228;37.632;2022-09-16T01:53:33;19.20;;;9.75;;
72974;SDS011;61166;54.228;37.632;2022-09-16T01:56:36;22.40;;;9.47;;
72974;SDS011;61166;54.228;37.632;2022-09-16T01:59:01;21.00;;;9.63;;
72974;SDS011;61166;54.228;37.632;2022-09-16T02:01:33;21.48;;;9.60;;
72974;SDS011;61166;54.228;37.632;2022-09-16T02:04:04;21.02;;;10.10;;
72974;SDS011;61166;54.228;37.632;2022-09-16T02:06:30;21.80;;;10.50;;
72974;SDS011;61166;54.228;37.632;2022-09-16T02:08:57;20.30;;;9.90;;
72974;SDS011;61166;54.228;37.632;2022-09-16T02:11:24;21.52;;;11.40;;
72974;SDS011;61166;54.228;37.632;2022-09-16T02:13:57;18.92;;;9.27;;
72974;SDS011;61166;54.228;37.632;2022-09-16T02:19:09;23.10;;;10.83;;
72974;SDS011;61166;54.228;37.632;2022-09-16T02:21:35;24.25;;;10.27;;
72974;SDS011;61166;54.228;37.632;2022-09-16T02:24:02;24.50;;;10.90;;
72974;SDS011;61166;54.228;37.632;2022-09-16T02:26:32;21.70;;;9.98;;
72974;SDS011;61166;54.228;37.632;2022-09-16T02:28:58;28.98;;;11.73;;
72974;SDS011;61166;54.228;37.632;2022-09-16T02:31:33;20.97;;;10.93;;
72974;SDS011;61166;54.228;37.632;2022-09-16T02:34:01;27.48;;;12.35;;
72974;SDS011;61166;54.228;37.632;2022-09-16T02:36:27;22.75;;;10.48;;
72974;SDS011;61166;54.228;37.632;2022-09-16T02:38:59;29.13;;;12.70;;
72974;SDS011;61166;54.228;37.632;2022-09-16T02:41:26;16.70;;;8.57;;
72974;SDS011;61166;54.228;37.632;2022-09-16T02:43:51;28.97;;;12.73;;
72974;SDS011;61166;54.228;37.632;2022-09-16T02:51:41;24.47;;;10.90;;
72974;SDS011;61166;54.228;37.632;2022-09-16T02:56:37;28.27;;;12.93;;
72974;SDS011;61166;54.228;37.632;2022-09-16T02:59:05;21.45;;;10.35;;
72974;SDS011;61166;54.228;37.632;2022-09-16T03:01:31;28.55;;;12.07;;
72974;SDS011;61166;54.228;37.632;2022-09-16T03:03:57;26.93;;;11.90;;
72974;SDS011;61166;54.228;37.632;2022-09-16T03:06:23;21.30;;;11.45;;
72974;SDS011;61166;54.228;37.632;2022-09-16T03:08:49;23.40;;;12.00;;
72974;SDS011;61166;54.228;37.632;2022-09-16T03:13:53;29.60;;;11.25;;
72974;SDS011;61166;54.228;37.632;2022-09-16T03:18:53;20.10;;;10.13;;
72974;SDS011;61166;54.228;37.632;2022-09-16T03:27:07;20.02;;;9.00;;
72974;SDS011;61166;54.228;37.632;2022-09-16T03:29:34;20.63;;;10.52;;
72974;SDS011;61166;54.228;37.632;2022-09-16T03:32:20;15.68;;;7.35;;
72974;SDS011;61166;54.228;37.632;2022-09-16T03:34:48;24.10;;;11.00;;
72974;SDS011;61166;54.228;37.632;2022-09-16T03:37:15;23.57;;;11.27;;
72974;SDS011;61166;54.228;37.632;2022-09-16T03:39:42;23.08;;;10.25;;
72974;SDS011;61166;54.228;37.632;2022-09-16T03:42:11;21.73;;;11.05;;
72974;SDS011;61166;54.228;37.632;2022-09-16T03:44:37;21.17;;;9.47;;
72974;SDS011;61166;54.228;37.632;2022-09-16T03:47:03;20.70;;;9.93;;
72974;SDS011;61166;54.228;37.632;2022-09-16T03:49:29;16.77;;;7.17;;
72974;SDS011;61166;54.228;37.632;2022-09-16T03:51:54;28.98;;;11.27;;
72974;SDS011;61166;54.228;37.632;2022-09-16T03:54:19;22.87;;;10.63;;
72974;SDS011;61166;54.228;37.632;2022-09-16T03:56:45;28.53;;;10.07;;
72974;SDS011;61166;54.228;37.632;2022-09-16T03:59:10;20.93;;;10.70;;
72974;SDS011;61166;54.228;37.632;2022-09-16T04:01:35;26.87;;;12.33;;
72974;SDS011;61166;54.228;37.632;2022-09-16T04:04:01;27.60;;;13.13;;
72974;SDS011;61166;54.228;37.632;2022-09-16T04:06:26;17.10;;;9.83;;
72974;SDS011;61166;54.228;37.632;2022-09-16T04:08:51;22.77;;;12.73;;
72974;SDS011;61166;54.228;37.632;2022-09-16T04:11:17;16.13;;;7.95;;
72974;SDS011;61166;54.228;37.632;2022-09-16T04:13:42;18.73;;;11.00;;
72974;SDS011;61166;54.228;37.632;2022-09-16T04:16:08;20.50;;;14.83;;
72974;SDS011;61166;54.228;37.632;2022-09-16T04:18:33;20.03;;;12.20;;
72974;SDS011;61166;54.228;37.632;2022-09-16T04:20:59;22.08;;;11.57;;
72974;SDS011;61166;54.228;37.632;2022-09-16T04:23:25;23.73;;;11.43;;
72974;SDS011;61166;54.228;37.632;2022-09-16T04:25:54;20.50;;;10.00;;
72974;SDS011;61166;54.228;37.632;2022-09-16T04:28:20;21.08;;;11.32;;
72974;SDS011;61166;54.228;37.632;2022-09-16T04:30:45;22.33;;;11.70;;
72974;SDS011;61166;54.228;37.632;2022-09-16T04:33:10;25.70;;;11.03;;
72974;SDS011;61166;54.228;37.632;2022-09-16T04:35:35;14.63;;;8.70;;
72974;SDS011;61166;54.228;37.632;2022-09-16T04:38:00;23.70;;;12.77;;
72974;SDS011;61166;54.228;37.632;2022-09-16T04:40:26;19.77;;;10.67;;
72974;SDS011;61166;54.228;37.632;2022-09-16T04:42:51;14.67;;;7.43;;
72974;SDS011;61166;54.228;37.632;2022-09-16T04:45:16;24.70;;;10.60;;
72974;SDS011;61166;54.228;37.632;2022-09-16T04:47:42;23.10;;;10.90;;
72974;SDS011;61166;54.228;37.632;2022-09-16T04:50:08;20.37;;;10.23;;
72974;SDS011;61166;54.228;37.632;2022-09-16T04:52:33;18.67;;;10.37;;
72974;SDS011;61166;54.228;37.632;2022-09-16T04:54:58;22.37;;;10.47;;
72974;SDS011;61166;54.228;37.632;2022-09-16T04:57:24;19.33;;;9.70;;
72974;SDS011;61166;54.228;37.632;2022-09-16T04:59:49;24.20;;;11.47;;
72974;SDS011;61166;54.228;37.632;2022-09-16T05:02:14;20.10;;;9.97;;
72974;SDS011;61166;54.228;37.632;2022-09-16T05:04:39;20.63;;;9.33;;
72974;SDS011;61166;54.228;37.632;2022-09-16T05:07:04;24.93;;;11.83;;
72974;SDS011;61166;54.228;37.632;2022-09-16T05:09:30;23.63;;;10.43;;
72974;SDS011;61166;54.228;37.632;2022-09-16T05:11:55;20.13;;;9.80;;
72974;SDS011;61166;54.228;37.632;2022-09-16T05:14:20;23.80;;;11.27;;
72974;SDS011;61166;54.228;37.632;2022-09-16T05:16:45;23.67;;;9.53;;
72974;SDS011;61166;54.228;37.632;2022-09-16T05:19:11;22.00;;;10.90;;
72974;SDS011;61166;54.228;37.632;2022-09-16T05:21:37;20.67;;;11.48;;
72974;SDS011;61166;54.228;37.632;2022-09-16T05:24:04;24.93;;;11.83;;
72974;SDS011;61166;54.228;37.632;2022-09-16T05:26:30;22.25;;;11.35;;
72974;SDS011;61166;54.228;37.632;2022-09-16T05:28:58;24.42;;;13.15;;
72974;SDS011;61166;54.228;37.632;2022-09-16T05:31:25;18.90;;;8.00;;
72974;SDS011;61166;54.228;37.632;2022-09-16T05:33:58;17.45;;;9.05;;
72974;SDS011;61166;54.228;37.632;2022-09-16T05:36:24;22.92;;;12.25;;
72974;SDS011;61166;54.228;37.632;2022-09-16T05:38:49;27.08;;;12.32;;
72974;SDS011;61166;54.228;37.632;2022-09-16T05:41:14;23.17;;;9.77;;
72974;SDS011;61166;54.228;37.632;2022-09-16T05:43:40;20.80;;;10.50;;
72974;SDS011;61166;54.228;37.632;2022-09-16T05:46:05;22.50;;;10.63;;
72974;SDS011;61166;54.228;37.632;2022-09-16T05:48:31;22.97;;;9.63;;
72974;SDS011;61166;54.228;37.632;2022-09-16T05:51:00;24.52;;;10.85;;
72974;SDS011;61166;54.228;37.632;2022-09-16T05:53:26;21.30;;;11.03;;
72974;SDS011;61166;54.228;37.632;2022-09-16T05:58:20;24.83;;;12.07;;
72974;SDS011;61166;54.228;37.632;2022-09-16T06:00:45;23.73;;;10.90;;
72974;SDS011;61166;54.228;37.632;2022-09-16T06:03:10;22.40;;;12.67;;
72974;SDS011;61166;54.228;37.632;2022-09-16T06:05:35;22.07;;;11.23;;
72974;SDS011;61166;54.228;37.632;2022-09-16T06:08:01;25.77;;;11.73;;
72974;SDS011;61166;54.228;37.632;2022-09-16T06:10:26;25.47;;;13.10;;
72974;SDS011;61166;54.228;37.632;2022-09-16T06:12:51;31.63;;;15.57;;
72974;SDS011;61166;54.228;37.632;2022-09-16T06:15:16;22.93;;;12.13;;
72974;SDS011;61166;54.228;37.632;2022-09-16T06:17:42;27.40;;;13.00;;
72974;SDS011;61166;54.228;37.632;2022-09-16T06:20:07;32.58;;;15.95;;
72974;SDS011;61166;54.228;37.632;2022-09-16T06:22:38;23.47;;;13.13;;
72974;SDS011;61166;54.228;37.632;2022-09-16T06:25:04;27.40;;;11.88;;
72974;SDS011;61166;54.228;37.632;2022-09-16T06:27:30;25.07;;;15.23;;
72974;SDS011;61166;54.228;37.632;2022-09-16T06:29:55;27.15;;;14.65;;
72974;SDS011;61166;54.228;37.632;2022-09-16T06:32:20;28.67;;;12.33;;
72974;SDS011;61166;54.228;37.632;2022-09-16T06:34:45;23.27;;;13.20;;
72974;SDS011;61166;54.228;37.632;2022-09-16T06:37:11;18.73;;;9.90;;
72974;SDS011;61166;54.228;37.632;2022-09-16T06:39:37;20.60;;;12.63;;
72974;SDS011;61166;54.228;37.632;2022-09-16T06:42:02;16.57;;;9.77;;
72974;SDS011;61166;54.228;37.632;2022-09-16T06:44:27;21.20;;;12.57;;
72974;SDS011;61166;54.228;37.632;2022-09-16T06:46:53;22.43;;;13.33;;
72974;SDS011;61166;54.228;37.632;2022-09-16T06:49:18;22.03;;;12.40;;
72974;SDS011;61166;54.228;37.632;2022-09-16T06:51:44;15.27;;;10.07;;
72974;SDS011;61166;54.228;37.632;2022-09-16T06:54:09;17.25;;;11.00;;
72974;SDS011;61166;54.228;37.632;2022-09-16T06:56:35;16.50;;;12.07;;
72974;SDS011;61166;54.228;37.632;2022-09-16T06:59:01;16.35;;;12.05;;
72974;SDS011;61166;54.228;37.632;2022-09-16T07:01:28;17.15;;;12.00;;
72974;SDS011;61166;54.228;37.632;2022-09-16T07:03:54;13.98;;;10.27;;
72974;SDS011;61166;54.228;37.632;2022-09-16T07:06:20;16.13;;;11.07;;
72974;SDS011;61166;54.228;37.632;2022-09-16T07:08:46;12.60;;;9.93;;
72974;SDS011;61166;54.228;37.632;2022-09-16T07:11:18;13.00;;;10.40;;
72974;SDS011;61166;54.228;37.632;2022-09-16T07:13:43;11.52;;;9.90;;
72974;SDS011;61166;54.228;37.632;2022-09-16T07:16:10;13.57;;;11.00;;
72974;SDS011;61166;54.228;37.632;2022-09-16T07:18:35;15.00;;;10.67;;
72974;SDS011;61166;54.228;37.632;2022-09-16T07:21:08;12.60;;;8.90;;
72974;SDS011;61166;54.228;37.632;2022-09-16T07:23:34;14.20;;;10.07;;
72974;SDS011;61166;54.228;37.632;2022-09-16T07:26:05;13.57;;;10.57;;
72974;SDS011;61166;54.228;37.632;2022-09-16T07:28:34;11.98;;;9.45;;
72974;SDS011;61166;54.228;37.632;2022-09-16T07:31:03;12.85;;;9.38;;
72974;SDS011;61166;54.228;37.632;2022-09-16T07:33:29;11.10;;;9.07;;
72974;SDS011;61166;54.228;37.632;2022-09-16T07:35:59;11.07;;;8.87;;
72974;SDS011;61166;54.228;37.632;2022-09-16T07:38:24;10.60;;;8.70;;
72974;SDS011;61166;54.228;37.632;2022-09-16T07:40:49;10.50;;;8.13;;
72974;SDS011;61166;54.228;37.632;2022-09-16T07:43:15;11.77;;;8.77;;
72974;SDS011;61166;54.228;37.632;2022-09-16T07:45:40;13.23;;;8.80;;
72974;SDS011;61166;54.228;37.632;2022-09-16T07:48:05;10.73;;;8.00;;
72974;SDS011;61166;54.228;37.632;2022-09-16T07:50:30;11.93;;;7.80;;
72974;SDS011;61166;54.228;37.632;2022-09-16T07:52:55;12.47;;;7.67;;
72974;SDS011;61166;54.228;37.632;2022-09-16T07:55:21;12.47;;;7.00;;
72974;SDS011;61166;54.228;37.632;2022-09-16T07:57:46;11.27;;;9.03;;
72974;SDS011;61166;54.228;37.632;2022-09-16T08:00:11;10.37;;;8.97;;
72974;SDS011;61166;54.228;37.632;2022-09-16T08:02:36;9.95;;;7.45;;
72974;SDS011;61166;54.228;37.632;2022-09-16T08:05:02;12.30;;;8.70;;
72974;SDS011;61166;54.228;37.632;2022-09-16T08:07:27;8.90;;;6.77;;
72974;SDS011;61166;54.228;37.632;2022-09-16T08:09:52;8.00;;;5.60;;
72974;SDS011;61166;54.228;37.632;2022-09-16T08:12:18;7.83;;;5.97;;
72974;SDS011;61166;54.228;37.632;2022-09-16T08:14:43;7.90;;;6.20;;
72974;SDS011;61166;54.228;37.632;2022-09-16T08:17:08;7.37;;;5.50;;
72974;SDS011;61166;54.228;37.632;2022-09-16T08:19:33;10.50;;;6.93;;
72974;SDS011;61166;54.228;37.632;2022-09-16T08:21:59;7.93;;;5.10;;
72974;SDS011;61166;54.228;37.632;2022-09-16T08:24:24;9.20;;;6.77;;
72974;SDS011;61166;54.228;37.632;2022-09-16T08:26:49;7.70;;;5.87;;
72974;SDS011;61166;54.228;37.632;2022-09-16T08:29:14;10.67;;;6.63;;
72974;SDS011;61166;54.228;37.632;2022-09-16T08:31:40;9.67;;;6.07;;
72974;SDS011;61166;54.228;37.632;2022-09-16T08:34:05;10.57;;;5.38;;
72974;SDS011;61166;54.228;37.632;2022-09-16T08:36:30;9.73;;;6.33;;
72974;SDS011;61166;54.228;37.632;2022-09-16T08:38:57;8.65;;;6.20;;
72974;SDS011;61166;54.228;37.632;2022-09-16T08:41:35;11.43;;;6.13;;
72974;SDS011;61166;54.228;37.632;2022-09-16T08:46:59;10.07;;;5.50;;
72974;SDS011;61166;54.228;37.632;2022-09-16T08:51:53;8.40;;;5.43;;
72974;SDS011;61166;54.228;37.632;2022-09-16T08:56:47;8.77;;;5.28;;
72974;SDS011;61166;54.228;37.632;2022-09-16T08:59:14;7.63;;;5.10;;
72974;SDS011;61166;54.228;37.632;2022-09-16T09:02:25;8.55;;;6.03;;
72974;SDS011;61166;54.228;37.632;2022-09-16T09:04:29;13.30;;;6.95;;
72974;SDS011;61166;54.228;37.632;2022-09-16T09:17:14;9.68;;;5.38;;
72974;SDS011;61166;54.228;37.632;2022-09-16T09:22:14;7.70;;;5.47;;
72974;SDS011;61166;54.228;37.632;2022-09-16T09:25:06;7.40;;;4.95;;
72974;SDS011;61166;54.228;37.632;2022-09-16T09:30:26;9.00;;;5.47;;
72974;SDS011;61166;54.228;37.632;2022-09-16T09:40:42;9.90;;;4.47;;
72974;SDS011;61166;54.228;37.632;2022-09-16T09:45:46;9.40;;;5.77;;
72974;SDS011;61166;54.228;37.632;2022-09-16T09:50:40;8.13;;;4.80;;
72974;SDS011;61166;54.228;37.632;2022-09-16T09:53:13;10.23;;;4.57;;
72974;SDS011;61166;54.228;37.632;2022-09-16T09:55:41;8.27;;;4.70;;
72974;SDS011;61166;54.228;37.632;2022-09-16T09:58:27;8.27;;;4.50;;
72974;SDS011;61166;54.228;37.632;2022-09-16T10:00:55;7.55;;;4.60;;
72974;SDS011;61166;54.228;37.632;2022-09-16T10:03:22;9.95;;;5.00;;
72974;SDS011;61166;54.228;37.632;2022-09-16T10:05:48;7.30;;;4.43;;
72974;SDS011;61166;54.228;37.632;2022-09-16T10:08:35;10.47;;;3.53;;
72974;SDS011;61166;54.228;37.632;2022-09-16T10:10:59;9.10;;;5.30;;
72974;SDS011;61166;54.228;37.632;2022-09-16T10:13:26;6.32;;;3.50;;
72974;SDS011;61166;54.228;37.632;2022-09-16T10:15:53;7.82;;;4.82;;
72974;SDS011;61166;54.228;37.632;2022-09-16T10:20:54;10.13;;;5.07;;
72974;SDS011;61166;54.228;37.632;2022-09-16T10:23:21;6.90;;;4.57;;
72974;SDS011;61166;54.228;37.632;2022-09-16T10:25:47;8.35;;;4.72;;
72974;SDS011;61166;54.228;37.632;2022-09-16T10:28:22;10.53;;;4.87;;
72974;SDS011;61166;54.228;37.632;2022-09-16T10:30:48;7.63;;;4.80;;
72974;SDS011;61166;54.228;37.632;2022-09-16T10:35:50;12.30;;;6.47;;
72974;SDS011;61166;54.228;37.632;2022-09-16T10:38:17;9.53;;;5.10;;
72974;SDS011;61166;54.228;37.632;2022-09-16T10:40:50;8.90;;;5.13;;
72974;SDS011;61166;54.228;37.632;2022-09-16T10:43:15;11.55;;;6.43;;
72974;SDS011;61166;54.228;37.632;2022-09-16T10:45:44;11.43;;;5.43;;
72974;SDS011;61166;54.228;37.632;2022-09-16T10:48:11;12.70;;;6.68;;
72974;SDS011;61166;54.228;37.632;2022-09-16T10:50:37;11.77;;;5.88;;
72974;SDS011;61166;54.228;37.632;2022-09-16T10:53:02;22.13;;;12.50;;
72974;SDS011;61166;54.228;37.632;2022-09-16T10:55:54;9.57;;;5.07;;
72974;SDS011;61166;54.228;37.632;2022-09-16T10:58:20;11.53;;;6.20;;
72974;SDS011;61166;54.228;37.632;2022-09-16T11:06:00;11.90;;;5.75;;
72974;SDS011;61166;54.228;37.632;2022-09-16T11:14:21;11.53;;;5.93;;
72974;SDS011;61166;54.228;37.632;2022-09-16T11:19:46;12.07;;;7.85;;
72974;SDS011;61166;54.228;37.632;2022-09-16T11:29:36;9.53;;;6.30;;
72974;SDS011;61166;54.228;37.632;2022-09-16T11:32:13;15.48;;;6.65;;
72974;SDS011;61166;54.228;37.632;2022-09-16T11:39:38;14.95;;;8.02;;
72974;SDS011;61166;54.228;37.632;2022-09-16T11:42:12;16.33;;;8.10;;
72974;SDS011;61166;54.228;37.632;2022-09-16T11:44:43;14.20;;;7.73;;
72974;SDS011;61166;54.228;37.632;2022-09-16T11:57:19;24.67;;;12.10;;
72974;SDS011;61166;54.228;37.632;2022-09-16T12:05:11;35.25;;;15.20;;
72974;SDS011;61166;54.228;37.632;2022-09-16T12:07:38;35.53;;;15.88;;
72974;SDS011;61166;54.228;37.632;2022-09-16T12:10:17;51.70;;;23.40;;
72974;SDS011;61166;54.228;37.632;2022-09-16T12:12:55;46.03;;;24.52;;
72974;SDS011;61166;54.228;37.632;2022-09-16T12:15:26;39.00;;;22.13;;
72974;SDS011;61166;54.228;37.632;2022-09-16T12:17:57;39.10;;;21.17;;
72974;SDS011;61166;54.228;37.632;2022-09-16T12:20:26;35.92;;;18.85;;
72974;SDS011;61166;54.228;37.632;2022-09-16T12:22:54;37.50;;;19.47;;
72974;SDS011;61166;54.228;37.632;2022-09-16T12:28:11;37.63;;;18.38;;
72974;SDS011;61166;54.228;37.632;2022-09-16T12:30:40;24.92;;;12.60;;
72974;SDS011;61166;54.228;37.632;2022-09-16T12:33:17;45.72;;;22.92;;
72974;SDS011;61166;54.228;37.632;2022-09-16T12:35:55;43.00;;;20.10;;
72974;SDS011;61166;54.228;37.632;2022-09-16T12:38:21;41.22;;;21.85;;
72974;SDS011;61166;54.228;37.632;2022-09-16T13:03:35;62.40;;;25.77;;
72974;SDS011;61166;54.228;37.632;2022-09-16T13:06:04;49.85;;;19.77;;
72974;SDS011;61166;54.228;37.632;2022-09-16T13:08:30;56.50;;;23.23;;
72974;SDS011;61166;54.228;37.632;2022-09-16T13:10:57;58.22;;;24.25;;
72974;SDS011;61166;54.228;37.632;2022-09-16T13:13:45;72.70;;;27.77;;
72974;SDS011;61166;54.228;37.632;2022-09-16T13:16:09;63.83;;;25.23;;
72974;SDS011;61166;54.228;37.632;2022-09-16T13:18:44;83.70;;;36.22;;
72974;SDS011;61166;54.228;37.632;2022-09-16T13:21:20;92.32;;;37.00;;
72974;SDS011;61166;54.228;37.632;2022-09-16T13:23:48;108.60;;;51.17;;
72974;SDS011;61166;54.228;37.632;2022-09-16T13:26:15;107.13;;;48.40;;
72974;SDS011;61166;54.228;37.632;2022-09-16T13:28:41;106.87;;;47.90;;
72974;SDS011;61166;54.228;37.632;2022-09-16T13:33:41;90.68;;;39.97;;
72974;SDS011;61166;54.228;37.632;2022-09-16T13:38:37;90.17;;;36.37;;
72974;SDS011;61166;54.228;37.632;2022-09-16T13:41:03;49.08;;;23.83;;
72974;SDS011;61166;54.228;37.632;2022-09-16T13:46:03;50.25;;;22.08;;
72974;SDS011;61166;54.228;37.632;2022-09-16T13:48:32;96.00;;;37.30;;
72974;SDS011;61166;54.228;37.632;2022-09-16T13:50:59;76.65;;;31.40;;
72974;SDS011;61166;54.228;37.632;2022-09-16T13:53:29;84.43;;;31.73;;
72974;SDS011;61166;54.228;37.632;2022-09-16T13:55:56;74.45;;;29.52;;
72974;SDS011;61166;54.228;37.632;2022-09-16T13:58:28;80.35;;;31.23;;
72974;SDS011;61166;54.228;37.632;2022-09-16T14:13:21;41.17;;;16.20;;
72974;SDS011;61166;54.228;37.632;2022-09-16T14:15:51;41.97;;;14.90;;
72974;SDS011;61166;54.228;37.632;2022-09-16T14:18:21;40.22;;;15.07;;
72974;SDS011;61166;54.228;37.632;2022-09-16T14:21:01;34.53;;;14.40;;
72974;SDS011;61166;54.228;37.632;2022-09-16T14:23:27;46.08;;;16.30;;
72974;SDS011;61166;54.228;37.632;2022-09-16T14:25:52;58.73;;;18.57;;
72974;SDS011;61166;54.228;37.632;2022-09-16T14:30:56;37.13;;;13.30;;
72974;SDS011;61166;54.228;37.632;2022-09-16T14:33:43;55.28;;;20.00;;
72974;SDS011;61166;54.228;37.632;2022-09-16T14:36:11;39.00;;;14.10;;
72974;SDS011;61166;54.228;37.632;2022-09-16T14:38:42;45.88;;;14.93;;
72974;SDS011;61166;54.228;37.632;2022-09-16T14:41:08;47.90;;;18.08;;
72974;SDS011;61166;54.228;37.632;2022-09-16T14:43:35;50.57;;;15.90;;
72974;SDS011;61166;54.228;37.632;2022-09-16T14:46:01;36.00;;;15.27;;
72974;SDS011;61166;54.228;37.632;2022-09-16T14:48:29;54.17;;;17.57;;
72974;SDS011;61166;54.228;37.632;2022-09-16T14:50:57;53.38;;;17.17;;
72974;SDS011;61166;54.228;37.632;2022-09-16T14:55:48;51.03;;;16.47;;
72974;SDS011;61166;54.228;37.632;2022-09-16T14:58:13;62.03;;;18.63;;
72974;SDS011;61166;54.228;37.632;2022-09-16T15:00:43;55.33;;;16.60;;
72974;SDS011;61166;54.228;37.632;2022-09-16T15:03:13;42.17;;;13.83;;
72974;SDS011;61166;54.228;37.632;2022-09-16T15:05:40;33.22;;;11.95;;
72974;SDS011;61166;54.228;37.632;2022-09-16T15:08:28;55.28;;;16.48;;
72974;SDS011;61166;54.228;37.632;2022-09-16T15:10:58;56.58;;;18.13;;
72974;SDS011;61166;54.228;37.632;2022-09-16T15:13:26;56.05;;;16.75;;
72974;SDS011;61166;54.228;37.632;2022-09-16T15:15:53;61.17;;;17.07;;
72974;SDS011;61166;54.228;37.632;2022-09-16T15:20:51;64.05;;;18.80;;
72974;SDS011;61166;54.228;37.632;2022-09-16T15:23:21;54.58;;;18.70;;
72974;SDS011;61166;54.228;37.632;2022-09-16T15:25:58;50.97;;;16.52;;
72974;SDS011;61166;54.228;37.632;2022-09-16T15:28:29;47.23;;;15.73;;
72974;SDS011;61166;54.228;37.632;2022-09-16T15:30:55;62.47;;;17.40;;
72974;SDS011;61166;54.228;37.632;2022-09-16T15:33:24;84.70;;;28.50;;
72974;SDS011;61166;54.228;37.632;2022-09-16T15:35:50;85.73;;;29.87;;
72974;SDS011;61166;54.228;37.632;2022-09-16T15:38:19;71.50;;;24.88;;
72974;SDS011;61166;54.228;37.632;2022-09-16T15:40:45;56.05;;;17.77;;
72974;SDS011;61166;54.228;37.632;2022-09-16T15:43:14;47.93;;;16.70;;
72974;SDS011;61166;54.228;37.632;2022-09-16T15:45:41;59.40;;;18.25;;
72974;SDS011;61166;54.228;37.632;2022-09-16T15:48:12;59.08;;;17.88;;
72974;SDS011;61166;54.228;37.632;2022-09-16T15:50:59;59.97;;;20.83;;
72974;SDS011;61166;54.228;37.632;2022-09-16T15:55:58;54.00;;;20.05;;
72974;SDS011;61166;54.228;37.632;2022-09-16T16:01:00;62.40;;;21.33;;
72974;SDS011;61166;54.228;37.632;2022-09-16T16:03:29;57.07;;;18.67;;
72974;SDS011;61166;54.228;37.632;2022-09-16T16:05:55;51.55;;;17.67;;
72974;SDS011;61166;54.228;37.632;2022-09-16T16:11:06;52.78;;;16.88;;
72974;SDS011;61166;54.228;37.632;2022-09-16T16:13:32;50.90;;;16.98;;
72974;SDS011;61166;54.228;37.632;2022-09-16T16:15:57;42.03;;;16.17;;
72974;SDS011;61166;54.228;37.632;2022-09-16T16:18:22;38.60;;;14.80;;
72974;SDS011;61166;54.228;37.632;2022-09-16T16:20:47;39.33;;;14.47;;
72974;SDS011;61166;54.228;37.632;2022-09-16T16:23:13;37.30;;;14.50;;
72974;SDS011;61166;54.228;37.632;2022-09-16T16:25:38;41.13;;;14.97;;
72974;SDS011;61166;54.228;37.632;2022-09-16T16:28:03;42.33;;;15.33;;
72974;SDS011;61166;54.228;37.632;2022-09-16T16:30:28;39.10;;;13.77;;
72974;SDS011;61166;54.228;37.632;2022-09-16T16:32:55;38.15;;;13.80;;
72974;SDS011;61166;54.228;37.632;2022-09-16T16:35:20;39.77;;;14.27;;
72974;SDS011;61166;54.228;37.632;2022-09-16T16:37:45;45.70;;;15.20;;
72974;SDS011;61166;54.228;37.632;2022-09-16T16:40:11;37.87;;;13.70;;
72974;SDS011;61166;54.228;37.632;2022-09-16T16:42:36;36.27;;;14.17;;
72974;SDS011;61166;54.228;37.632;2022-09-16T16:45:01;39.13;;;14.43;;
72974;SDS011;61166;54.228;37.632;2022-09-16T16:47:27;35.67;;;13.45;;
72974;SDS011;61166;54.228;37.632;2022-09-16T16:49:52;38.73;;;14.53;;
72974;SDS011;61166;54.228;37.632;2022-09-16T16:52:18;41.63;;;14.97;;
72974;SDS011;61166;54.228;37.632;2022-09-16T16:54:43;39.27;;;14.77;;
72974;SDS011;61166;54.228;37.632;2022-09-16T16:57:09;39.60;;;15.30;;
72974;SDS011;61166;54.228;37.632;2022-09-16T16:59:35;44.47;;;16.70;;
72974;SDS011;61166;54.228;37.632;2022-09-16T17:02:01;52.60;;;17.58;;
72974;SDS011;61166;54.228;37.632;2022-09-16T17:04:27;41.83;;;16.20;;
72974;SDS011;61166;54.228;37.632;2022-09-16T17:06:53;41.13;;;16.20;;
72974;SDS011;61166;54.228;37.632;2022-09-16T17:09:18;38.83;;;14.77;;
72974;SDS011;61166;54.228;37.632;2022-09-16T17:11:57;37.77;;;14.10;;
72974;SDS011;61166;54.228;37.632;2022-09-16T17:14:23;37.08;;;14.68;;
72974;SDS011;61166;54.228;37.632;2022-09-16T17:16:48;35.15;;;14.95;;
72974;SDS011;61166;54.228;37.632;2022-09-16T17:19:14;38.73;;;14.87;;
72974;SDS011;61166;54.228;37.632;2022-09-16T17:21:40;39.67;;;17.63;;
72974;SDS011;61166;54.228;37.632;2022-09-16T17:24:06;39.63;;;16.27;;